Weather at Glasgow International Airport

Public forecast

Using degrees Celsius for public forecast. Weather courtesy of forecast.io.

Current aviation weather report (METAR) for Glasgow International Airport

Retrieved 2020/09/28 11:20 UTC (5 minutes ago):

EGPF 281120Z AUTO VRB03KT 2500 -RA BKN004 OVC009 10/10 Q1010 REDZ

Aviation forecast (TAF) for Glasgow International Airport

Retrieved 2020/09/28 06:16 UTC (5 hours ago):

TAF COR EGPF 280511Z 2806/2906 12004KT 9999 FEW025 TEMPO 2806/2816 7000 -RA BKN012 PROB30 TEMPO 2808/2815 4000 RADZ BKN008 BECMG 2813/2816 25010KT BECMG 2821/2824 VRB03KT TEMPO 2900/2906 4000 BR PROB30 2902/2906 0300 FG BKN001